sensor_id;sensor_type;location;lat;lon;timestamp;temperature;humidity
16901;DHT22;8567;52.540;6.434;2022-08-03T00:00:55;23.90;60.90
16901;DHT22;8567;52.540;6.434;2022-08-03T00:03:22;23.80;60.90
16901;DHT22;8567;52.540;6.434;2022-08-03T00:05:48;23.80;60.90
16901;DHT22;8567;52.540;6.434;2022-08-03T00:08:15;23.80;60.80
16901;DHT22;8567;52.540;6.434;2022-08-03T00:10:42;23.70;60.90
16901;DHT22;8567;52.540;6.434;2022-08-03T00:13:09;23.70;61.00
16901;DHT22;8567;52.540;6.434;2022-08-03T00:15:37;23.70;61.10
16901;DHT22;8567;52.540;6.434;2022-08-03T00:18:06;23.70;61.10
16901;DHT22;8567;52.540;6.434;2022-08-03T00:20:34;23.70;61.00
16901;DHT22;8567;52.540;6.434;2022-08-03T00:23:00;23.70;61.10
16901;DHT22;8567;52.540;6.434;2022-08-03T00:25:27;23.70;60.90
16901;DHT22;8567;52.540;6.434;2022-08-03T00:27:54;23.70;61.00
16901;DHT22;8567;52.540;6.434;2022-08-03T00:30:21;23.60;61.10
16901;DHT22;8567;52.540;6.434;2022-08-03T00:32:47;23.70;61.00
16901;DHT22;8567;52.540;6.434;2022-08-03T00:35:16;23.70;61.00
16901;DHT22;8567;52.540;6.434;2022-08-03T00:37:42;23.70;60.80
16901;DHT22;8567;52.540;6.434;2022-08-03T00:40:10;23.70;61.00
16901;DHT22;8567;52.540;6.434;2022-08-03T00:42:46;23.60;61.10
16901;DHT22;8567;52.540;6.434;2022-08-03T00:45:15;23.60;61.10
16901;DHT22;8567;52.540;6.434;2022-08-03T00:47:42;23.60;61.10
16901;DHT22;8567;52.540;6.434;2022-08-03T00:50:09;23.70;60.90
16901;DHT22;8567;52.540;6.434;2022-08-03T00:52:38;23.60;61.10
16901;DHT22;8567;52.540;6.434;2022-08-03T00:55:05;23.60;61.10
16901;DHT22;8567;52.540;6.434;2022-08-03T00:57:32;23.70;60.90
16901;DHT22;8567;52.540;6.434;2022-08-03T00:59:59;23.70;60.70
16901;DHT22;8567;52.540;6.434;2022-08-03T01:02:26;23.70;60.60
16901;DHT22;8567;52.540;6.434;2022-08-03T01:04:53;23.70;60.70
16901;DHT22;8567;52.540;6.434;2022-08-03T01:07:26;23.70;60.90
16901;DHT22;8567;52.540;6.434;2022-08-03T01:10:02;23.60;61.10
16901;DHT22;8567;52.540;6.434;2022-08-03T01:12:38;23.60;61.10
16901;DHT22;8567;52.540;6.434;2022-08-03T01:15:12;23.60;61.20
16901;DHT22;8567;52.540;6.434;2022-08-03T01:17:48;23.50;61.20
16901;DHT22;8567;52.540;6.434;2022-08-03T01:20:17;23.50;61.20
16901;DHT22;8567;52.540;6.434;2022-08-03T01:23:23;23.50;61.10
16901;DHT22;8567;52.540;6.434;2022-08-03T01:26:12;23.50;61.00
16901;DHT22;8567;52.540;6.434;2022-08-03T01:29:00;23.50;61.20
16901;DHT22;8567;52.540;6.434;2022-08-03T01:31:33;23.40;61.60
16901;DHT22;8567;52.540;6.434;2022-08-03T01:34:05;23.40;61.50
16901;DHT22;8567;52.540;6.434;2022-08-03T01:36:35;23.40;61.40
16901;DHT22;8567;52.540;6.434;2022-08-03T01:39:05;23.50;61.20
16901;DHT22;8567;52.540;6.434;2022-08-03T01:41:36;23.40;61.30
16901;DHT22;8567;52.540;6.434;2022-08-03T01:44:07;23.40;61.40
16901;DHT22;8567;52.540;6.434;2022-08-03T01:46:37;23.40;61.40
16901;DHT22;8567;52.540;6.434;2022-08-03T01:49:06;23.50;61.10
16901;DHT22;8567;52.540;6.434;2022-08-03T01:51:36;23.50;60.90
16901;DHT22;8567;52.540;6.434;2022-08-03T01:54:04;23.50;61.00
16901;DHT22;8567;52.540;6.434;2022-08-03T01:56:32;23.40;61.30
16901;DHT22;8567;52.540;6.434;2022-08-03T01:59:01;23.40;61.40
16901;DHT22;8567;52.540;6.434;2022-08-03T02:01:30;23.40;61.30
16901;DHT22;8567;52.540;6.434;2022-08-03T02:03:59;23.40;61.40
16901;DHT22;8567;52.540;6.434;2022-08-03T02:06:27;23.40;61.50
16901;DHT22;8567;52.540;6.434;2022-08-03T02:08:55;23.40;61.50
16901;DHT22;8567;52.540;6.434;2022-08-03T02:11:23;23.40;61.50
16901;DHT22;8567;52.540;6.434;2022-08-03T02:13:50;23.40;61.70
16901;DHT22;8567;52.540;6.434;2022-08-03T02:16:18;23.40;61.90
16901;DHT22;8567;52.540;6.434;2022-08-03T02:18:46;23.30;62.00
16901;DHT22;8567;52.540;6.434;2022-08-03T02:21:14;23.30;62.10
16901;DHT22;8567;52.540;6.434;2022-08-03T02:23:41;23.40;62.00
16901;DHT22;8567;52.540;6.434;2022-08-03T02:26:11;23.40;62.10
16901;DHT22;8567;52.540;6.434;2022-08-03T02:28:42;23.30;62.10
16901;DHT22;8567;52.540;6.434;2022-08-03T02:31:13;23.40;62.10
16901;DHT22;8567;52.540;6.434;2022-08-03T02:33:44;23.40;62.10
16901;DHT22;8567;52.540;6.434;2022-08-03T02:36:15;23.30;62.20
16901;DHT22;8567;52.540;6.434;2022-08-03T02:38:43;23.30;62.40
16901;DHT22;8567;52.540;6.434;2022-08-03T02:41:14;23.30;62.20
16901;DHT22;8567;52.540;6.434;2022-08-03T02:43:42;23.30;62.20
16901;DHT22;8567;52.540;6.434;2022-08-03T02:46:12;23.30;62.50
16901;DHT22;8567;52.540;6.434;2022-08-03T02:48:40;23.30;62.50
16901;DHT22;8567;52.540;6.434;2022-08-03T02:51:08;23.30;62.60
16901;DHT22;8567;52.540;6.434;2022-08-03T02:53:38;23.20;62.60
16901;DHT22;8567;52.540;6.434;2022-08-03T02:56:06;23.30;62.50
16901;DHT22;8567;52.540;6.434;2022-08-03T02:58:34;23.30;62.40
16901;DHT22;8567;52.540;6.434;2022-08-03T03:01:02;23.30;62.60
16901;DHT22;8567;52.540;6.434;2022-08-03T03:03:29;23.30;62.50
16901;DHT22;8567;52.540;6.434;2022-08-03T03:05:58;23.40;62.10
16901;DHT22;8567;52.540;6.434;2022-08-03T03:08:26;23.40;62.00
16901;DHT22;8567;52.540;6.434;2022-08-03T03:10:56;23.40;61.90
16901;DHT22;8567;52.540;6.434;2022-08-03T03:13:23;23.40;61.90
16901;DHT22;8567;52.540;6.434;2022-08-03T03:15:51;23.40;62.10
16901;DHT22;8567;52.540;6.434;2022-08-03T03:18:20;23.40;62.00
16901;DHT22;8567;52.540;6.434;2022-08-03T03:20:48;23.30;62.20
16901;DHT22;8567;52.540;6.434;2022-08-03T03:23:16;23.30;62.30
16901;DHT22;8567;52.540;6.434;2022-08-03T03:25:42;23.30;62.30
16901;DHT22;8567;52.540;6.434;2022-08-03T03:28:11;23.20;62.50
16901;DHT22;8567;52.540;6.434;2022-08-03T03:30:38;23.20;62.50
16901;DHT22;8567;52.540;6.434;2022-08-03T03:33:05;23.20;62.70
16901;DHT22;8567;52.540;6.434;2022-08-03T03:35:32;23.20;62.70
16901;DHT22;8567;52.540;6.434;2022-08-03T03:37:59;23.20;62.70
16901;DHT22;8567;52.540;6.434;2022-08-03T03:40:26;23.20;62.70
16901;DHT22;8567;52.540;6.434;2022-08-03T03:42:53;23.20;62.90
16901;DHT22;8567;52.540;6.434;2022-08-03T03:45:22;23.20;62.60
16901;DHT22;8567;52.540;6.434;2022-08-03T03:47:49;23.20;62.80
16901;DHT22;8567;52.540;6.434;2022-08-03T03:50:17;23.20;62.80
16901;DHT22;8567;52.540;6.434;2022-08-03T03:52:44;23.20;62.80
16901;DHT22;8567;52.540;6.434;2022-08-03T03:55:15;23.20;62.70
16901;DHT22;8567;52.540;6.434;2022-08-03T03:57:41;23.30;62.60
16901;DHT22;8567;52.540;6.434;2022-08-03T04:00:09;23.20;62.70
16901;DHT22;8567;52.540;6.434;2022-08-03T04:02:38;23.20;62.80
16901;DHT22;8567;52.540;6.434;2022-08-03T04:05:06;23.20;62.80
16901;DHT22;8567;52.540;6.434;2022-08-03T04:07:57;23.20;62.80
16901;DHT22;8567;52.540;6.434;2022-08-03T04:10:44;23.20;62.80
16901;DHT22;8567;52.540;6.434;2022-08-03T04:13:28;23.20;63.00
16901;DHT22;8567;52.540;6.434;2022-08-03T04:15:56;23.10;63.00
16901;DHT22;8567;52.540;6.434;2022-08-03T04:18:28;23.20;63.10
16901;DHT22;8567;52.540;6.434;2022-08-03T04:20:56;23.20;63.10
16901;DHT22;8567;52.540;6.434;2022-08-03T04:23:24;23.10;63.10
16901;DHT22;8567;52.540;6.434;2022-08-03T04:25:53;23.10;63.10
16901;DHT22;8567;52.540;6.434;2022-08-03T04:28:22;23.10;63.10
16901;DHT22;8567;52.540;6.434;2022-08-03T04:30:50;23.10;63.20
16901;DHT22;8567;52.540;6.434;2022-08-03T04:33:19;23.10;63.30
16901;DHT22;8567;52.540;6.434;2022-08-03T04:35:49;23.10;63.20
16901;DHT22;8567;52.540;6.434;2022-08-03T04:38:18;23.10;63.20
16901;DHT22;8567;52.540;6.434;2022-08-03T04:40:45;23.10;63.30
16901;DHT22;8567;52.540;6.434;2022-08-03T04:43:15;23.10;63.60
16901;DHT22;8567;52.540;6.434;2022-08-03T04:45:46;23.10;63.60
16901;DHT22;8567;52.540;6.434;2022-08-03T04:48:13;23.00;63.80
16901;DHT22;8567;52.540;6.434;2022-08-03T04:50:41;23.10;63.80
16901;DHT22;8567;52.540;6.434;2022-08-03T04:53:09;23.10;63.90
16901;DHT22;8567;52.540;6.434;2022-08-03T04:55:36;23.10;64.00
16901;DHT22;8567;52.540;6.434;2022-08-03T04:58:03;23.10;64.10
16901;DHT22;8567;52.540;6.434;2022-08-03T05:00:31;23.10;64.00
16901;DHT22;8567;52.540;6.434;2022-08-03T05:02:58;23.10;64.00
16901;DHT22;8567;52.540;6.434;2022-08-03T05:05:25;23.10;64.10
16901;DHT22;8567;52.540;6.434;2022-08-03T05:07:52;23.10;64.20
16901;DHT22;8567;52.540;6.434;2022-08-03T05:10:20;23.10;64.20
16901;DHT22;8567;52.540;6.434;2022-08-03T05:12:47;23.10;64.30
16901;DHT22;8567;52.540;6.434;2022-08-03T05:15:16;23.10;64.40
16901;DHT22;8567;52.540;6.434;2022-08-03T05:17:43;23.10;64.40
16901;DHT22;8567;52.540;6.434;2022-08-03T05:20:10;23.00;64.60
16901;DHT22;8567;52.540;6.434;2022-08-03T05:22:37;23.00;64.70
16901;DHT22;8567;52.540;6.434;2022-08-03T05:25:04;23.10;64.60
16901;DHT22;8567;52.540;6.434;2022-08-03T05:27:32;23.00;64.70
16901;DHT22;8567;52.540;6.434;2022-08-03T05:30:00;23.00;64.90
16901;DHT22;8567;52.540;6.434;2022-08-03T05:32:26;23.00;64.80
16901;DHT22;8567;52.540;6.434;2022-08-03T05:34:53;23.00;64.70
16901;DHT22;8567;52.540;6.434;2022-08-03T05:37:20;23.10;64.50
16901;DHT22;8567;52.540;6.434;2022-08-03T05:39:47;23.20;64.20
16901;DHT22;8567;52.540;6.434;2022-08-03T05:42:14;23.20;64.00
16901;DHT22;8567;52.540;6.434;2022-08-03T05:44:42;23.30;63.90
16901;DHT22;8567;52.540;6.434;2022-08-03T05:47:09;23.30;63.70
16901;DHT22;8567;52.540;6.434;2022-08-03T05:49:36;23.30;63.90
16901;DHT22;8567;52.540;6.434;2022-08-03T05:52:03;23.20;64.00
16901;DHT22;8567;52.540;6.434;2022-08-03T05:54:30;23.30;63.80
16901;DHT22;8567;52.540;6.434;2022-08-03T05:56:57;23.20;64.00
16901;DHT22;8567;52.540;6.434;2022-08-03T05:59:24;23.30;64.00
16901;DHT22;8567;52.540;6.434;2022-08-03T06:01:52;23.40;63.60
16901;DHT22;8567;52.540;6.434;2022-08-03T06:04:19;23.40;63.40
16901;DHT22;8567;52.540;6.434;2022-08-03T06:06:46;23.40;63.30
16901;DHT22;8567;52.540;6.434;2022-08-03T06:09:15;23.50;63.00
16901;DHT22;8567;52.540;6.434;2022-08-03T06:11:41;23.60;62.70
16901;DHT22;8567;52.540;6.434;2022-08-03T06:14:08;23.70;62.80
16901;DHT22;8567;52.540;6.434;2022-08-03T06:16:35;23.70;62.60
16901;DHT22;8567;52.540;6.434;2022-08-03T06:19:03;23.70;62.40
16901;DHT22;8567;52.540;6.434;2022-08-03T06:21:29;23.80;62.20
16901;DHT22;8567;52.540;6.434;2022-08-03T06:23:56;23.80;62.10
16901;DHT22;8567;52.540;6.434;2022-08-03T06:26:24;23.80;62.00
16901;DHT22;8567;52.540;6.434;2022-08-03T06:28:52;23.80;61.80
16901;DHT22;8567;52.540;6.434;2022-08-03T06:31:19;23.90;61.80
16901;DHT22;8567;52.540;6.434;2022-08-03T06:33:47;23.90;61.80
16901;DHT22;8567;52.540;6.434;2022-08-03T06:36:15;23.90;61.70
16901;DHT22;8567;52.540;6.434;2022-08-03T06:38:42;23.90;61.50
16901;DHT22;8567;52.540;6.434;2022-08-03T06:41:08;23.90;61.50
16901;DHT22;8567;52.540;6.434;2022-08-03T06:43:35;24.00;61.30
16901;DHT22;8567;52.540;6.434;2022-08-03T06:46:02;24.00;61.30
16901;DHT22;8567;52.540;6.434;2022-08-03T06:48:30;24.00;61.20
16901;DHT22;8567;52.540;6.434;2022-08-03T06:50:57;24.00;61.20
16901;DHT22;8567;52.540;6.434;2022-08-03T06:53:25;24.00;61.00
16901;DHT22;8567;52.540;6.434;2022-08-03T06:55:52;24.00;60.90
16901;DHT22;8567;52.540;6.434;2022-08-03T06:58:18;24.10;60.80
16901;DHT22;8567;52.540;6.434;2022-08-03T07:00:45;24.20;60.50
16901;DHT22;8567;52.540;6.434;2022-08-03T07:03:12;24.20;60.60
16901;DHT22;8567;52.540;6.434;2022-08-03T07:05:40;24.20;60.40
16901;DHT22;8567;52.540;6.434;2022-08-03T07:08:07;24.20;60.40
16901;DHT22;8567;52.540;6.434;2022-08-03T07:10:35;24.20;60.40
16901;DHT22;8567;52.540;6.434;2022-08-03T07:13:02;24.20;60.40
16901;DHT22;8567;52.540;6.434;2022-08-03T07:15:29;24.20;60.40
16901;DHT22;8567;52.540;6.434;2022-08-03T07:17:56;24.30;60.40
16901;DHT22;8567;52.540;6.434;2022-08-03T07:20:23;24.50;59.80
16901;DHT22;8567;52.540;6.434;2022-08-03T07:22:49;24.40;60.00
16901;DHT22;8567;52.540;6.434;2022-08-03T07:25:16;24.30;60.20
16901;DHT22;8567;52.540;6.434;2022-08-03T07:27:44;24.20;60.40
16901;DHT22;8567;52.540;6.434;2022-08-03T07:30:13;24.20;60.30
16901;DHT22;8567;52.540;6.434;2022-08-03T07:32:40;24.20;60.30
16901;DHT22;8567;52.540;6.434;2022-08-03T07:35:08;24.20;60.30
16901;DHT22;8567;52.540;6.434;2022-08-03T07:37:36;24.20;60.30
16901;DHT22;8567;52.540;6.434;2022-08-03T07:40:04;24.20;60.30
16901;DHT22;8567;52.540;6.434;2022-08-03T07:42:32;24.20;60.20
16901;DHT22;8567;52.540;6.434;2022-08-03T07:45:00;24.20;60.10
16901;DHT22;8567;52.540;6.434;2022-08-03T07:47:28;24.20;60.10
16901;DHT22;8567;52.540;6.434;2022-08-03T07:49:55;24.30;60.10
16901;DHT22;8567;52.540;6.434;2022-08-03T07:52:22;24.30;60.20
16901;DHT22;8567;52.540;6.434;2022-08-03T07:55:08;24.30;60.10
16901;DHT22;8567;52.540;6.434;2022-08-03T07:57:35;24.30;60.20
16901;DHT22;8567;52.540;6.434;2022-08-03T08:00:06;24.30;60.00
16901;DHT22;8567;52.540;6.434;2022-08-03T08:02:34;24.30;60.10
16901;DHT22;8567;52.540;6.434;2022-08-03T08:05:01;24.30;59.80
16901;DHT22;8567;52.540;6.434;2022-08-03T08:07:27;24.30;59.90
16901;DHT22;8567;52.540;6.434;2022-08-03T08:09:54;24.30;59.80
16901;DHT22;8567;52.540;6.434;2022-08-03T08:12:21;24.40;59.80
16901;DHT22;8567;52.540;6.434;2022-08-03T08:14:48;24.40;59.80
16901;DHT22;8567;52.540;6.434;2022-08-03T08:17:16;24.40;59.90
16901;DHT22;8567;52.540;6.434;2022-08-03T08:19:44;24.40;59.90
16901;DHT22;8567;52.540;6.434;2022-08-03T08:22:11;24.40;59.70
16901;DHT22;8567;52.540;6.434;2022-08-03T08:24:38;24.40;59.70
16901;DHT22;8567;52.540;6.434;2022-08-03T08:27:04;24.40;59.60
16901;DHT22;8567;52.540;6.434;2022-08-03T08:29:33;24.40;59.70
16901;DHT22;8567;52.540;6.434;2022-08-03T08:32:00;24.40;59.60
16901;DHT22;8567;52.540;6.434;2022-08-03T08:34:28;24.40;59.60
16901;DHT22;8567;52.540;6.434;2022-08-03T08:36:55;24.40;59.70
16901;DHT22;8567;52.540;6.434;2022-08-03T08:39:21;24.50;59.50
16901;DHT22;8567;52.540;6.434;2022-08-03T08:41:50;24.50;59.60
16901;DHT22;8567;52.540;6.434;2022-08-03T08:44:16;24.50;59.40
16901;DHT22;8567;52.540;6.434;2022-08-03T08:46:43;24.50;59.40
16901;DHT22;8567;52.540;6.434;2022-08-03T08:49:12;24.50;59.40
16901;DHT22;8567;52.540;6.434;2022-08-03T08:51:45;24.50;59.30
16901;DHT22;8567;52.540;6.434;2022-08-03T08:54:14;24.50;59.20
16901;DHT22;8567;52.540;6.434;2022-08-03T08:56:41;24.50;59.20
16901;DHT22;8567;52.540;6.434;2022-08-03T08:59:09;24.50;59.20
16901;DHT22;8567;52.540;6.434;2022-08-03T09:01:37;24.60;59.10
16901;DHT22;8567;52.540;6.434;2022-08-03T09:04:05;24.60;58.90
16901;DHT22;8567;52.540;6.434;2022-08-03T09:06:34;24.70;58.90
16901;DHT22;8567;52.540;6.434;2022-08-03T09:09:02;24.70;58.80
16901;DHT22;8567;52.540;6.434;2022-08-03T09:11:29;24.70;58.80
16901;DHT22;8567;52.540;6.434;2022-08-03T09:13:55;24.70;58.90
16901;DHT22;8567;52.540;6.434;2022-08-03T09:16:22;24.60;58.80
16901;DHT22;8567;52.540;6.434;2022-08-03T09:18:51;24.60;58.90
16901;DHT22;8567;52.540;6.434;2022-08-03T09:21:21;24.60;58.80
16901;DHT22;8567;52.540;6.434;2022-08-03T09:23:50;24.60;58.90
16901;DHT22;8567;52.540;6.434;2022-08-03T09:26:23;24.60;58.90
16901;DHT22;8567;52.540;6.434;2022-08-03T09:28:57;24.60;58.90
16901;DHT22;8567;52.540;6.434;2022-08-03T09:31:30;24.60;58.80
16901;DHT22;8567;52.540;6.434;2022-08-03T09:34:00;24.60;58.80
16901;DHT22;8567;52.540;6.434;2022-08-03T09:36:35;24.60;58.70
16901;DHT22;8567;52.540;6.434;2022-08-03T09:39:04;24.60;58.80
16901;DHT22;8567;52.540;6.434;2022-08-03T09:41:32;24.60;58.80
16901;DHT22;8567;52.540;6.434;2022-08-03T09:43:59;24.60;58.80
16901;DHT22;8567;52.540;6.434;2022-08-03T09:46:26;24.60;58.80
16901;DHT22;8567;52.540;6.434;2022-08-03T09:49:08;24.60;58.90
16901;DHT22;8567;52.540;6.434;2022-08-03T09:51:36;24.60;58.90
16901;DHT22;8567;52.540;6.434;2022-08-03T09:54:03;24.60;58.90
16901;DHT22;8567;52.540;6.434;2022-08-03T09:56:42;24.60;58.80
16901;DHT22;8567;52.540;6.434;2022-08-03T09:59:11;24.60;58.70
16901;DHT22;8567;52.540;6.434;2022-08-03T10:01:38;24.70;58.60
16901;DHT22;8567;52.540;6.434;2022-08-03T10:04:11;24.70;58.60
16901;DHT22;8567;52.540;6.434;2022-08-03T10:06:42;24.70;58.50
16901;DHT22;8567;52.540;6.434;2022-08-03T10:09:10;24.70;58.50
16901;DHT22;8567;52.540;6.434;2022-08-03T10:11:39;24.70;58.50
16901;DHT22;8567;52.540;6.434;2022-08-03T10:14:08;24.70;58.50
16901;DHT22;8567;52.540;6.434;2022-08-03T10:16:37;24.70;58.50
16901;DHT22;8567;52.540;6.434;2022-08-03T10:19:06;24.70;58.30
16901;DHT22;8567;52.540;6.434;2022-08-03T10:21:36;24.70;58.40
16901;DHT22;8567;52.540;6.434;2022-08-03T10:24:05;24.70;58.50
16901;DHT22;8567;52.540;6.434;2022-08-03T10:26:34;24.70;58.50
16901;DHT22;8567;52.540;6.434;2022-08-03T10:29:03;24.70;58.50
16901;DHT22;8567;52.540;6.434;2022-08-03T10:31:36;24.70;58.50
16901;DHT22;8567;52.540;6.434;2022-08-03T10:34:10;24.70;58.50
16901;DHT22;8567;52.540;6.434;2022-08-03T10:36:40;24.70;58.40
16901;DHT22;8567;52.540;6.434;2022-08-03T10:39:07;24.70;58.50
16901;DHT22;8567;52.540;6.434;2022-08-03T10:41:39;24.60;58.50
16901;DHT22;8567;52.540;6.434;2022-08-03T10:44:10;24.70;58.40
16901;DHT22;8567;52.540;6.434;2022-08-03T10:46:42;24.70;58.30
16901;DHT22;8567;52.540;6.434;2022-08-03T10:49:12;24.70;58.30
16901;DHT22;8567;52.540;6.434;2022-08-03T10:51:40;24.70;58.30
16901;DHT22;8567;52.540;6.434;2022-08-03T10:57:47;24.80;58.10
16901;DHT22;8567;52.540;6.434;2022-08-03T11:00:14;24.80;58.10
16901;DHT22;8567;52.540;6.434;2022-08-03T11:03:10;24.80;58.00
16901;DHT22;8567;52.540;6.434;2022-08-03T11:05:40;24.80;58.00
16901;DHT22;8567;52.540;6.434;2022-08-03T11:08:25;24.80;58.00
16901;DHT22;8567;52.540;6.434;2022-08-03T11:10:53;24.80;58.00
16901;DHT22;8567;52.540;6.434;2022-08-03T11:13:23;24.80;57.90
16901;DHT22;8567;52.540;6.434;2022-08-03T11:15:51;24.80;57.80
16901;DHT22;8567;52.540;6.434;2022-08-03T11:18:20;24.80;57.90
16901;DHT22;8567;52.540;6.434;2022-08-03T11:20:48;24.80;57.90
16901;DHT22;8567;52.540;6.434;2022-08-03T11:23:17;24.80;58.00
16901;DHT22;8567;52.540;6.434;2022-08-03T11:26:07;24.80;58.00
16901;DHT22;8567;52.540;6.434;2022-08-03T11:28:33;24.80;58.00
16901;DHT22;8567;52.540;6.434;2022-08-03T11:34:05;24.80;58.00
16901;DHT22;8567;52.540;6.434;2022-08-03T11:39:38;24.80;58.00
16901;DHT22;8567;52.540;6.434;2022-08-03T11:42:38;24.80;58.00
16901;DHT22;8567;52.540;6.434;2022-08-03T11:45:07;24.80;58.00
16901;DHT22;8567;52.540;6.434;2022-08-03T11:47:37;24.90;57.80
16901;DHT22;8567;52.540;6.434;2022-08-03T11:50:07;24.90;57.70
16901;DHT22;8567;52.540;6.434;2022-08-03T11:52:36;24.90;57.70
16901;DHT22;8567;52.540;6.434;2022-08-03T11:55:12;24.90;57.70
16901;DHT22;8567;52.540;6.434;2022-08-03T11:57:39;24.90;57.70
16901;DHT22;8567;52.540;6.434;2022-08-03T12:00:21;24.90;57.70
16901;DHT22;8567;52.540;6.434;2022-08-03T12:02:55;24.90;57.50
16901;DHT22;8567;52.540;6.434;2022-08-03T12:05:34;24.90;57.60
16901;DHT22;8567;52.540;6.434;2022-08-03T12:08:01;24.90;57.60
16901;DHT22;8567;52.540;6.434;2022-08-03T12:10:28;25.00;57.50
16901;DHT22;8567;52.540;6.434;2022-08-03T12:12:55;25.00;57.40
16901;DHT22;8567;52.540;6.434;2022-08-03T12:15:26;24.90;57.50
16901;DHT22;8567;52.540;6.434;2022-08-03T12:17:55;25.00;57.50
16901;DHT22;8567;52.540;6.434;2022-08-03T12:20:23;25.00;57.50
16901;DHT22;8567;52.540;6.434;2022-08-03T12:22:52;24.90;57.60
16901;DHT22;8567;52.540;6.434;2022-08-03T12:25:23;25.00;57.50
16901;DHT22;8567;52.540;6.434;2022-08-03T12:27:51;24.90;57.60
16901;DHT22;8567;52.540;6.434;2022-08-03T12:30:18;24.90;57.50
16901;DHT22;8567;52.540;6.434;2022-08-03T12:32:45;25.00;57.50
16901;DHT22;8567;52.540;6.434;2022-08-03T12:35:21;25.00;57.30
16901;DHT22;8567;52.540;6.434;2022-08-03T12:37:49;25.00;57.20
16901;DHT22;8567;52.540;6.434;2022-08-03T12:40:24;25.00;57.30
16901;DHT22;8567;52.540;6.434;2022-08-03T12:42:52;25.00;57.20
16901;DHT22;8567;52.540;6.434;2022-08-03T12:45:23;25.00;57.50
16901;DHT22;8567;52.540;6.434;2022-08-03T12:47:54;24.90;57.50
16901;DHT22;8567;52.540;6.434;2022-08-03T12:50:26;25.00;57.50
16901;DHT22;8567;52.540;6.434;2022-08-03T12:52:53;25.00;57.40
16901;DHT22;8567;52.540;6.434;2022-08-03T12:55:21;25.00;57.40
16901;DHT22;8567;52.540;6.434;2022-08-03T12:57:50;25.00;57.30
16901;DHT22;8567;52.540;6.434;2022-08-03T13:00:18;25.00;57.20
16901;DHT22;8567;52.540;6.434;2022-08-03T13:02:44;25.00;57.20
16901;DHT22;8567;52.540;6.434;2022-08-03T13:05:13;25.00;57.20
16901;DHT22;8567;52.540;6.434;2022-08-03T13:07:40;25.10;57.10
16901;DHT22;8567;52.540;6.434;2022-08-03T13:10:08;25.00;57.20
16901;DHT22;8567;52.540;6.434;2022-08-03T13:12:46;25.10;57.20
16901;DHT22;8567;52.540;6.434;2022-08-03T13:15:14;25.10;57.10
16901;DHT22;8567;52.540;6.434;2022-08-03T13:17:42;25.10;57.00
16901;DHT22;8567;52.540;6.434;2022-08-03T13:20:10;25.10;57.00
16901;DHT22;8567;52.540;6.434;2022-08-03T13:22:37;25.10;56.90
16901;DHT22;8567;52.540;6.434;2022-08-03T13:25:04;25.10;56.90
16901;DHT22;8567;52.540;6.434;2022-08-03T13:27:32;25.10;57.00
16901;DHT22;8567;52.540;6.434;2022-08-03T13:29:59;25.10;57.00
16901;DHT22;8567;52.540;6.434;2022-08-03T13:32:27;25.10;56.90
16901;DHT22;8567;52.540;6.434;2022-08-03T13:34:54;25.20;56.90
16901;DHT22;8567;52.540;6.434;2022-08-03T13:37:21;25.20;56.90
16901;DHT22;8567;52.540;6.434;2022-08-03T13:39:48;25.20;56.90
16901;DHT22;8567;52.540;6.434;2022-08-03T13:42:14;25.20;56.80
16901;DHT22;8567;52.540;6.434;2022-08-03T13:44:42;25.30;56.80
16901;DHT22;8567;52.540;6.434;2022-08-03T13:47:08;25.30;56.70
16901;DHT22;8567;52.540;6.434;2022-08-03T13:49:36;25.30;56.60
16901;DHT22;8567;52.540;6.434;2022-08-03T13:52:04;25.40;56.50
16901;DHT22;8567;52.540;6.434;2022-08-03T13:54:30;25.40;56.50
16901;DHT22;8567;52.540;6.434;2022-08-03T13:56:58;25.40;56.40
16901;DHT22;8567;52.540;6.434;2022-08-03T13:59:25;25.40;56.40
16901;DHT22;8567;52.540;6.434;2022-08-03T14:01:52;25.50;56.20
16901;DHT22;8567;52.540;6.434;2022-08-03T14:04:20;25.50;56.20
16901;DHT22;8567;52.540;6.434;2022-08-03T14:06:48;25.50;56.20
16901;DHT22;8567;52.540;6.434;2022-08-03T14:09:15;25.50;56.10
16901;DHT22;8567;52.540;6.434;2022-08-03T14:11:43;25.60;56.00
16901;DHT22;8567;52.540;6.434;2022-08-03T14:14:10;25.60;56.00
16901;DHT22;8567;52.540;6.434;2022-08-03T14:16:37;25.60;56.00
16901;DHT22;8567;52.540;6.434;2022-08-03T14:19:04;25.60;56.00
16901;DHT22;8567;52.540;6.434;2022-08-03T14:21:32;25.60;56.00
16901;DHT22;8567;52.540;6.434;2022-08-03T14:24:00;25.60;56.00
16901;DHT22;8567;52.540;6.434;2022-08-03T14:26:27;25.60;55.90
16901;DHT22;8567;52.540;6.434;2022-08-03T14:28:54;25.60;56.00
16901;DHT22;8567;52.540;6.434;2022-08-03T14:31:21;25.60;56.00
16901;DHT22;8567;52.540;6.434;2022-08-03T14:33:48;25.60;55.90
16901;DHT22;8567;52.540;6.434;2022-08-03T14:36:15;25.60;55.90
16901;DHT22;8567;52.540;6.434;2022-08-03T14:38:42;25.60;55.90
16901;DHT22;8567;52.540;6.434;2022-08-03T14:41:10;25.60;55.90
16901;DHT22;8567;52.540;6.434;2022-08-03T14:43:37;25.70;55.90
16901;DHT22;8567;52.540;6.434;2022-08-03T14:46:04;25.70;55.80
16901;DHT22;8567;52.540;6.434;2022-08-03T14:48:31;25.70;55.80
16901;DHT22;8567;52.540;6.434;2022-08-03T14:50:58;25.70;55.80
16901;DHT22;8567;52.540;6.434;2022-08-03T14:53:25;25.70;55.70
16901;DHT22;8567;52.540;6.434;2022-08-03T14:55:53;25.70;55.80
16901;DHT22;8567;52.540;6.434;2022-08-03T14:58:22;25.70;55.60
16901;DHT22;8567;52.540;6.434;2022-08-03T15:00:51;25.80;55.60
16901;DHT22;8567;52.540;6.434;2022-08-03T15:03:19;25.80;55.40
16901;DHT22;8567;52.540;6.434;2022-08-03T15:05:47;25.90;55.30
16901;DHT22;8567;52.540;6.434;2022-08-03T15:08:14;25.90;55.30
16901;DHT22;8567;52.540;6.434;2022-08-03T15:10:41;25.90;55.30
16901;DHT22;8567;52.540;6.434;2022-08-03T15:13:08;25.90;55.30
16901;DHT22;8567;52.540;6.434;2022-08-03T15:15:36;25.90;55.30
16901;DHT22;8567;52.540;6.434;2022-08-03T15:18:04;25.90;55.20
16901;DHT22;8567;52.540;6.434;2022-08-03T15:20:31;25.90;55.30
16901;DHT22;8567;52.540;6.434;2022-08-03T15:22:58;25.90;55.30
16901;DHT22;8567;52.540;6.434;2022-08-03T15:25:25;25.90;55.40
16901;DHT22;8567;52.540;6.434;2022-08-03T15:27:51;25.90;55.40
16901;DHT22;8567;52.540;6.434;2022-08-03T15:30:18;25.90;55.20
16901;DHT22;8567;52.540;6.434;2022-08-03T15:32:46;26.00;55.20
16901;DHT22;8567;52.540;6.434;2022-08-03T15:35:13;26.00;55.20
16901;DHT22;8567;52.540;6.434;2022-08-03T15:37:40;26.10;55.50
16901;DHT22;8567;52.540;6.434;2022-08-03T15:40:08;26.10;55.40
16901;DHT22;8567;52.540;6.434;2022-08-03T15:42:35;26.10;55.20
16901;DHT22;8567;52.540;6.434;2022-08-03T15:45:02;26.20;55.00
16901;DHT22;8567;52.540;6.434;2022-08-03T15:47:29;26.20;55.10
16901;DHT22;8567;52.540;6.434;2022-08-03T15:49:57;26.30;55.00
16901;DHT22;8567;52.540;6.434;2022-08-03T15:52:24;26.40;55.00
16901;DHT22;8567;52.540;6.434;2022-08-03T15:54:52;26.40;55.10
16901;DHT22;8567;52.540;6.434;2022-08-03T15:57:19;26.40;54.80
16901;DHT22;8567;52.540;6.434;2022-08-03T15:59:45;26.40;54.80
16901;DHT22;8567;52.540;6.434;2022-08-03T16:02:12;26.50;54.70
16901;DHT22;8567;52.540;6.434;2022-08-03T16:04:39;26.50;54.50